createdAt,value
2017-08-29T00:00:01.799Z,58.20
2017-08-29T00:02:29.264Z,56.33
2017-08-29T00:04:57.196Z,60.50
2017-08-29T00:07:24.730Z,55.43
2017-08-29T00:09:52.295Z,67.53
2017-08-29T00:12:19.905Z,67.20
2017-08-29T00:14:47.407Z,54.80
2017-08-29T00:17:14.963Z,65.90
2017-08-29T00:19:42.442Z,64.03
2017-08-29T00:22:09.894Z,56.63
2017-08-29T00:24:38.158Z,57.33
2017-08-29T00:27:05.636Z,57.10
2017-08-29T00:29:33.098Z,56.63
2017-08-29T00:32:00.573Z,53.33
2017-08-29T00:34:28.051Z,77.43
2017-08-29T00:36:55.516Z,59.70
2017-08-29T00:39:23.004Z,64.90
2017-08-29T00:41:50.586Z,56.47
2017-08-29T00:44:18.046Z,55.20
2017-08-29T00:46:45.575Z,67.80
2017-08-29T00:49:13.040Z,57.87
2017-08-29T00:51:40.586Z,63.60
2017-08-29T00:54:08.052Z,59.17
2017-08-29T00:56:35.522Z,68.97
2017-08-29T00:59:03.067Z,77.53
2017-08-29T01:01:31.317Z,56.80
2017-08-29T01:03:58.892Z,61.27
2017-08-29T01:06:26.457Z,65.10
2017-08-29T01:08:53.923Z,54.03
2017-08-29T01:11:21.399Z,58.60
2017-08-29T01:13:48.907Z,59.87
2017-08-29T01:16:17.182Z,61.87
2017-08-29T01:18:44.739Z,54.83
2017-08-29T01:21:12.967Z,62.40
2017-08-29T01:23:40.496Z,54.40
2017-08-29T01:26:07.975Z,55.73
2017-08-29T01:28:36.212Z,67.60
2017-08-29T01:31:03.679Z,55.33
2017-08-29T01:33:31.154Z,55.60
2017-08-29T01:35:58.631Z,62.17
2017-08-29T01:38:26.155Z,62.43
2017-08-29T01:40:53.703Z,52.80
2017-08-29T01:43:21.274Z,46.83
2017-08-29T01:45:48.823Z,53.67
2017-08-29T01:48:16.366Z,48.17
2017-08-29T01:50:43.832Z,50.20
2017-08-29T01:53:11.314Z,50.30
2017-08-29T01:55:38.854Z,53.97
2017-08-29T01:58:06.315Z,54.97
2017-08-29T02:00:33.899Z,44.90
2017-08-29T02:03:02.155Z,44.33
2017-08-29T02:05:29.715Z,43.43
2017-08-29T02:07:57.260Z,47.17
2017-08-29T02:10:24.826Z,43.50
2017-08-29T02:12:52.282Z,54.17
2017-08-29T02:15:19.747Z,40.97
2017-08-29T02:17:47.287Z,45.80
2017-08-29T02:20:14.779Z,47.60
2017-08-29T02:22:43.038Z,54.60
2017-08-29T02:25:10.586Z,45.63
2017-08-29T02:27:38.055Z,47.40
2017-08-29T02:30:06.311Z,47.10
2017-08-29T02:32:33.908Z,46.97
2017-08-29T02:35:01.375Z,59.53
2017-08-29T02:37:28.890Z,48.40
2017-08-29T02:39:56.402Z,58.83
2017-08-29T02:42:23.908Z,64.53
2017-08-29T02:44:51.370Z,58.73
2017-08-29T02:47:18.934Z,56.50
2017-08-29T02:49:47.171Z,58.17
2017-08-29T02:52:14.644Z,53.80
2017-08-29T02:54:42.212Z,60.40
2017-08-29T02:57:09.772Z,62.07
2017-08-29T02:59:37.322Z,60.27
2017-08-29T03:02:04.816Z,65.97
2017-08-29T03:04:33.058Z,76.63
2017-08-29T03:07:00.620Z,71.23
2017-08-29T03:09:28.175Z,61.77
2017-08-29T03:11:55.736Z,85.30
2017-08-29T03:14:23.196Z,65.00
2017-08-29T03:16:50.689Z,57.70
2017-08-29T03:19:18.163Z,77.33
2017-08-29T03:21:45.640Z,77.83
2017-08-29T03:24:13.145Z,70.07
2017-08-29T03:26:41.384Z,72.93
2017-08-29T03:29:08.956Z,77.13
2017-08-29T03:31:36.515Z,77.13
2017-08-29T03:34:04.020Z,68.53
2017-08-29T03:36:31.491Z,80.67
2017-08-29T03:38:58.963Z,75.00
2017-08-29T03:41:26.438Z,74.77
2017-08-29T03:43:54.224Z,72.60
2017-08-29T03:46:21.759Z,71.80
2017-08-29T03:48:49.228Z,80.03
2017-08-29T03:51:16.781Z,78.20
2017-08-29T03:53:44.335Z,69.23
2017-08-29T03:56:11.894Z,74.90
2017-08-29T03:58:39.455Z,85.90
2017-08-29T04:01:06.948Z,72.77
2017-08-29T04:03:34.471Z,71.27
2017-08-29T04:06:02.056Z,87.90
2017-08-29T04:08:29.598Z,91.53
2017-08-29T04:10:57.188Z,119.73
2017-08-29T04:13:24.661Z,110.33
2017-08-29T04:15:52.168Z,99.47
2017-08-29T04:18:19.628Z,97.17
2017-08-29T04:20:47.184Z,93.23
2017-08-29T04:23:14.647Z,92.60
2017-08-29T04:25:42.107Z,91.57
2017-08-29T04:28:09.652Z,94.07
2017-08-29T04:30:38.563Z,111.87
2017-08-29T04:33:06.392Z,116.03
2017-08-29T04:35:33.892Z,113.90
2017-08-29T04:38:01.390Z,137.47
2017-08-29T04:40:28.933Z,114.03
2017-08-29T04:42:57.613Z,141.47
2017-08-29T04:45:25.092Z,126.73
2017-08-29T04:47:52.585Z,153.53
2017-08-29T04:50:20.053Z,175.90
2017-08-29T04:52:47.598Z,148.33
2017-08-29T04:55:15.379Z,154.57
2017-08-29T04:57:42.847Z,149.57
2017-08-29T05:00:10.380Z,137.43
2017-08-29T05:02:37.850Z,156.07
2017-08-29T05:05:05.320Z,152.23
2017-08-29T05:07:32.855Z,205.53
2017-08-29T05:10:00.318Z,217.43
2017-08-29T05:12:27.792Z,214.60
2017-08-29T05:14:55.382Z,203.23
2017-08-29T05:17:22.992Z,210.90
2017-08-29T05:19:51.359Z,196.83
2017-08-29T05:22:18.936Z,208.63
2017-08-29T05:24:47.096Z,218.57
2017-08-29T05:27:14.570Z,212.10
2017-08-29T05:29:42.942Z,211.43
2017-08-29T05:32:10.432Z,223.33
2017-08-29T05:34:37.944Z,230.60
2017-08-29T05:37:05.421Z,213.87
2017-08-29T05:39:33.678Z,202.93
2017-08-29T05:42:01.385Z,193.30
2017-08-29T05:44:28.902Z,209.97
2017-08-29T05:46:56.370Z,195.67
2017-08-29T05:49:23.918Z,199.83
2017-08-29T05:51:51.467Z,178.60
2017-08-29T05:54:18.972Z,205.03
2017-08-29T05:56:46.453Z,179.83
2017-08-29T05:59:14.361Z,188.23
2017-08-29T06:01:42.622Z,185.20
2017-08-29T06:04:10.130Z,183.27
2017-08-29T06:06:37.646Z,182.50
2017-08-29T06:09:05.229Z,174.83
2017-08-29T06:11:32.705Z,154.83
2017-08-29T06:14:00.216Z,152.67
2017-08-29T06:16:27.791Z,173.03
2017-08-29T06:18:56.034Z,162.93
2017-08-29T06:21:23.531Z,171.30
2017-08-29T06:23:51.030Z,161.93
2017-08-29T06:26:18.641Z,152.17
2017-08-29T06:28:46.178Z,152.83
2017-08-29T06:31:13.743Z,158.23
2017-08-29T06:33:41.414Z,150.37
2017-08-29T06:36:08.883Z,153.07
2017-08-29T06:38:36.347Z,124.33
2017-08-29T06:41:03.827Z,135.20
2017-08-29T06:43:31.355Z,125.10
2017-08-29T06:45:58.883Z,120.43
2017-08-29T06:48:26.361Z,109.43
2017-08-29T06:50:53.830Z,106.23
2017-08-29T06:53:21.311Z,99.50
2017-08-29T06:55:48.863Z,91.63
2017-08-29T06:58:16.387Z,100.03
2017-08-29T07:00:43.935Z,102.20
2017-08-29T07:03:11.404Z,91.30
2017-08-29T07:05:39.627Z,109.30
2017-08-29T07:08:07.120Z,96.70
2017-08-29T07:10:34.584Z,92.37
2017-08-29T07:13:02.832Z,96.20
2017-08-29T07:15:30.306Z,101.93
2017-08-29T07:17:57.776Z,95.53
2017-08-29T07:20:25.239Z,105.47
2017-08-29T07:22:53.525Z,100.50
2017-08-29T07:25:21.064Z,106.13
2017-08-29T07:27:48.539Z,105.80
2017-08-29T07:30:16.882Z,117.17
2017-08-29T07:32:44.367Z,107.90
2017-08-29T07:35:11.848Z,102.23
2017-08-29T07:37:39.325Z,99.43
2017-08-29T07:40:06.807Z,104.57
2017-08-29T07:42:34.275Z,94.23
2017-08-29T07:45:01.836Z,102.17
2017-08-29T07:47:29.312Z,97.93
2017-08-29T07:49:56.793Z,96.70
2017-08-29T07:52:24.268Z,96.27
2017-08-29T07:54:51.735Z,96.00
2017-08-29T07:57:19.212Z,91.47
2017-08-29T07:59:46.778Z,91.17
2017-08-29T08:02:14.352Z,90.70
2017-08-29T08:04:41.831Z,95.40
2017-08-29T08:07:09.324Z,87.47
2017-08-29T08:09:36.902Z,88.43
2017-08-29T08:12:04.384Z,86.13
2017-08-29T08:14:32.626Z,90.43
2017-08-29T08:17:00.093Z,74.97
2017-08-29T08:19:27.572Z,81.20
2017-08-29T08:21:55.064Z,86.67
2017-08-29T08:24:22.572Z,76.50
2017-08-29T08:26:50.044Z,86.83
2017-08-29T08:29:17.588Z,79.87
2017-08-29T08:31:45.143Z,84.17
2017-08-29T08:34:12.708Z,80.00
2017-08-29T08:36:40.168Z,78.60
2017-08-29T08:39:07.643Z,80.10
2017-08-29T08:41:35.181Z,80.63
2017-08-29T08:44:02.651Z,79.07
2017-08-29T08:46:30.900Z,86.20
2017-08-29T08:48:58.495Z,80.47
2017-08-29T08:51:25.955Z,83.63
2017-08-29T08:53:53.534Z,81.17
2017-08-29T08:56:21.039Z,73.60
2017-08-29T08:58:48.526Z,83.20
2017-08-29T09:01:16.009Z,84.20
2017-08-29T09:03:43.483Z,79.03
2017-08-29T09:06:10.949Z,72.70
2017-08-29T09:08:38.424Z,76.23
2017-08-29T09:11:05.892Z,74.70
2017-08-29T09:13:33.436Z,80.53
2017-08-29T09:16:01.105Z,87.03
2017-08-29T09:18:28.585Z,88.03
2017-08-29T09:20:56.058Z,73.77
2017-08-29T09:23:23.626Z,74.73
2017-08-29T09:25:51.093Z,76.80
2017-08-29T09:28:18.587Z,75.87
2017-08-29T09:30:46.155Z,69.30
2017-08-29T09:33:13.627Z,66.70
2017-08-29T09:35:41.100Z,70.83
2017-08-29T09:38:08.929Z,61.23
2017-08-29T09:40:36.479Z,53.43
2017-08-29T09:43:03.947Z,66.00
2017-08-29T09:45:32.532Z,62.13
2017-08-29T09:47:59.999Z,56.03
2017-08-29T09:50:28.238Z,64.93
2017-08-29T09:52:55.720Z,58.23
2017-08-29T09:55:23.272Z,54.27
2017-08-29T09:57:50.844Z,55.37
2017-08-29T10:00:18.416Z,48.73
2017-08-29T10:02:45.899Z,47.00
2017-08-29T10:05:13.392Z,60.43
2017-08-29T10:07:40.875Z,57.67
2017-08-29T10:10:08.341Z,51.93
2017-08-29T10:12:35.832Z,50.10
2017-08-29T10:15:03.344Z,58.23
2017-08-29T10:17:31.559Z,53.63
2017-08-29T10:19:59.127Z,49.20
2017-08-29T10:22:26.621Z,55.10
2017-08-29T10:24:54.076Z,59.70
2017-08-29T10:27:21.764Z,48.97
2017-08-29T10:29:49.272Z,59.37
2017-08-29T10:32:16.758Z,50.47
2017-08-29T10:34:44.223Z,50.57
2017-08-29T10:37:11.701Z,48.73
2017-08-29T10:39:39.192Z,63.83
2017-08-29T10:42:06.660Z,61.53
2017-08-29T10:44:34.239Z,39.63
2017-08-29T10:47:01.711Z,50.23
2017-08-29T10:49:30.022Z,47.63
2017-08-29T10:51:57.479Z,44.03
2017-08-29T10:54:25.894Z,49.17
2017-08-29T10:56:54.079Z,39.80
2017-08-29T10:59:21.547Z,39.63
2017-08-29T11:01:49.105Z,38.63
2017-08-29T11:04:16.656Z,43.23
2017-08-29T11:06:44.115Z,45.73
2017-08-29T11:09:11.668Z,36.33
2017-08-29T11:11:39.144Z,37.77
2017-08-29T11:14:07.400Z,35.20
2017-08-29T11:16:34.897Z,30.10
2017-08-29T11:19:02.417Z,38.93
2017-08-29T11:21:29.890Z,42.20
2017-08-29T11:23:57.363Z,39.80
2017-08-29T11:26:24.829Z,41.87
2017-08-29T11:28:52.304Z,35.70
2017-08-29T11:31:19.778Z,33.57
2017-08-29T11:33:47.247Z,34.70
2017-08-29T11:36:14.733Z,39.90
2017-08-29T11:38:42.206Z,38.10
2017-08-29T11:41:09.681Z,43.80
2017-08-29T11:43:37.163Z,31.50
2017-08-29T11:46:04.644Z,33.87
2017-08-29T11:48:32.107Z,30.37
2017-08-29T11:50:59.575Z,30.63
2017-08-29T11:53:27.059Z,32.97
2017-08-29T11:55:55.236Z,33.00
2017-08-29T11:58:22.711Z,24.27
2017-08-29T12:00:50.328Z,29.23
2017-08-29T12:03:17.787Z,29.07
2017-08-29T12:05:45.258Z,26.03
2017-08-29T12:08:12.740Z,27.13
2017-08-29T12:10:40.208Z,27.73
2017-08-29T12:13:07.673Z,34.77
2017-08-29T12:15:35.167Z,38.57
2017-08-29T12:18:02.632Z,26.13
2017-08-29T12:20:30.091Z,23.80
2017-08-29T12:22:57.612Z,26.17
2017-08-29T12:25:25.080Z,23.73
2017-08-29T12:27:52.623Z,23.87
2017-08-29T12:30:20.184Z,22.93
2017-08-29T12:32:48.456Z,16.83
2017-08-29T12:35:16.353Z,21.13
2017-08-29T12:37:44.608Z,20.63
2017-08-29T12:40:12.069Z,16.83
2017-08-29T12:42:39.636Z,19.60
2017-08-29T12:45:07.109Z,18.60
2017-08-29T12:47:34.584Z,21.27
2017-08-29T12:50:02.060Z,18.10
2017-08-29T12:52:29.547Z,22.43
2017-08-29T12:54:57.105Z,21.83
2017-08-29T12:57:24.563Z,23.43
2017-08-29T12:59:52.127Z,19.40
2017-08-29T13:02:19.587Z,17.37
2017-08-29T13:04:47.136Z,24.00
2017-08-29T13:07:14.692Z,22.43
2017-08-29T13:09:42.151Z,23.93
2017-08-29T13:12:09.716Z,15.47
2017-08-29T13:14:37.387Z,21.37
2017-08-29T13:17:04.923Z,13.30
2017-08-29T13:19:32.479Z,19.33
2017-08-29T13:21:59.955Z,13.83
2017-08-29T13:24:27.416Z,17.00
2017-08-29T13:26:55.659Z,18.03
2017-08-29T13:29:23.261Z,13.60
2017-08-29T13:31:50.791Z,13.20
2017-08-29T13:34:18.353Z,13.13
2017-08-29T13:36:45.912Z,15.20
2017-08-29T13:39:13.479Z,18.40
2017-08-29T13:41:40.945Z,15.80
2017-08-29T13:44:08.492Z,16.50
2017-08-29T13:46:35.953Z,16.73
2017-08-29T13:49:04.211Z,16.90
2017-08-29T13:51:31.792Z,18.50
2017-08-29T13:54:02.614Z,27.27
2017-08-29T13:56:30.145Z,18.33
2017-08-29T13:58:58.760Z,16.20
2017-08-29T14:01:26.310Z,16.70
2017-08-29T14:03:54.736Z,17.17
2017-08-29T14:06:22.252Z,16.20
2017-08-29T14:08:49.812Z,23.40
2017-08-29T14:11:17.271Z,17.80
2017-08-29T14:13:44.766Z,17.07
2017-08-29T14:16:12.225Z,18.80
2017-08-29T14:18:39.697Z,21.53
2017-08-29T14:21:07.295Z,16.80
2017-08-29T14:23:34.852Z,21.63
2017-08-29T14:26:02.416Z,16.53
2017-08-29T14:28:29.902Z,14.97
2017-08-29T14:30:57.423Z,18.10
2017-08-29T14:33:24.980Z,20.33
2017-08-29T14:35:52.542Z,17.10
2017-08-29T14:38:20.104Z,17.90
2017-08-29T14:40:47.680Z,16.80
2017-08-29T14:43:15.170Z,15.20
2017-08-29T14:45:42.640Z,32.73
2017-08-29T14:48:22.213Z,29.87
2017-08-29T14:50:49.775Z,29.40
2017-08-29T14:53:17.235Z,30.20
2017-08-29T14:55:44.791Z,28.73
2017-08-29T14:58:12.336Z,32.17
2017-08-29T15:00:39.811Z,30.67
2017-08-29T15:03:07.464Z,29.27
2017-08-29T15:05:35.008Z,33.63
2017-08-29T15:08:02.652Z,30.93
2017-08-29T15:10:30.149Z,28.53
2017-08-29T15:12:57.739Z,31.37
2017-08-29T15:15:25.221Z,30.00
2017-08-29T15:17:52.736Z,29.40
2017-08-29T15:20:20.216Z,30.60
2017-08-29T15:22:47.694Z,32.47
2017-08-29T15:25:16.414Z,26.40
2017-08-29T15:27:43.881Z,28.67
2017-08-29T15:30:11.414Z,34.60
2017-08-29T15:32:38.992Z,30.87
2017-08-29T15:35:06.463Z,31.00
2017-08-29T15:37:34.456Z,31.50
2017-08-29T15:40:01.927Z,33.83
2017-08-29T15:42:29.436Z,25.77
2017-08-29T15:44:56.993Z,22.83
2017-08-29T15:47:24.499Z,28.90
2017-08-29T15:49:52.009Z,27.10
2017-08-29T15:52:19.519Z,27.57
2017-08-29T15:54:47.004Z,28.60
2017-08-29T15:57:14.583Z,24.03
2017-08-29T15:59:42.146Z,29.20
2017-08-29T16:02:09.656Z,28.47
2017-08-29T16:04:37.190Z,29.60
2017-08-29T16:07:05.435Z,27.37
2017-08-29T16:09:32.992Z,31.20
2017-08-29T16:12:10.681Z,27.80
2017-08-29T16:14:38.315Z,31.40
2017-08-29T16:17:05.800Z,28.83
2017-08-29T16:19:33.276Z,23.03
2017-08-29T16:22:00.813Z,26.03
2017-08-29T16:24:28.376Z,32.07
2017-08-29T16:26:55.855Z,28.33
2017-08-29T16:29:23.390Z,25.47
2017-08-29T16:31:50.856Z,24.27
2017-08-29T16:34:18.400Z,25.97
2017-08-29T16:36:46.592Z,28.67
2017-08-29T16:39:14.057Z,34.20
2017-08-29T16:41:41.591Z,27.77
2017-08-29T16:44:09.157Z,29.80
2017-08-29T16:46:36.614Z,34.53
2017-08-29T16:49:04.177Z,22.87
2017-08-29T16:51:31.728Z,28.90
2017-08-29T16:53:59.215Z,25.00
2017-08-29T16:56:26.735Z,24.60
2017-08-29T16:58:54.216Z,21.33
2017-08-29T17:01:21.756Z,22.73
2017-08-29T17:03:49.239Z,29.10
2017-08-29T17:06:16.720Z,24.73
2017-08-29T17:08:44.192Z,30.33
2017-08-29T17:11:12.683Z,21.50
2017-08-29T17:13:40.151Z,23.80
2017-08-29T17:16:08.449Z,28.20
2017-08-29T17:18:35.933Z,31.93
2017-08-29T17:21:03.397Z,25.03
2017-08-29T17:23:30.865Z,25.13
2017-08-29T17:25:58.376Z,24.30
2017-08-29T17:28:25.852Z,29.50
2017-08-29T17:30:53.326Z,25.50
2017-08-29T17:33:20.796Z,25.97
2017-08-29T17:35:48.258Z,31.90
2017-08-29T17:38:15.759Z,26.53
2017-08-29T17:40:43.367Z,25.33
2017-08-29T17:43:10.876Z,26.43
2017-08-29T17:45:38.424Z,30.10
2017-08-29T17:48:06.231Z,31.40
2017-08-29T17:50:33.743Z,27.53
2017-08-29T17:53:01.236Z,36.47
2017-08-29T17:55:29.436Z,35.17
2017-08-29T17:57:56.895Z,30.70
2017-08-29T18:00:24.425Z,37.10
2017-08-29T18:02:52.213Z,26.63
2017-08-29T18:05:19.721Z,29.90
2017-08-29T18:07:47.327Z,30.63
2017-08-29T18:10:15.115Z,33.47
2017-08-29T18:12:43.560Z,29.43
2017-08-29T18:15:11.080Z,31.70
2017-08-29T18:17:38.569Z,37.07
2017-08-29T18:20:06.143Z,27.57
2017-08-29T18:22:33.702Z,31.13
2017-08-29T18:25:01.228Z,31.00
2017-08-29T18:27:29.489Z,34.60
2017-08-29T18:29:57.000Z,29.10
2017-08-29T18:32:24.469Z,30.87
2017-08-29T18:34:51.955Z,31.33
2017-08-29T18:37:19.437Z,35.80
2017-08-29T18:39:46.903Z,31.00
2017-08-29T18:42:14.429Z,40.83
2017-08-29T18:44:41.943Z,34.43
2017-08-29T18:47:09.427Z,36.93
2017-08-29T18:49:36.900Z,43.43
2017-08-29T18:52:04.450Z,37.93
2017-08-29T18:54:32.011Z,39.37
2017-08-29T18:56:59.586Z,31.93
2017-08-29T18:59:27.086Z,33.30
2017-08-29T19:01:54.695Z,41.57
2017-08-29T19:04:22.261Z,38.17
2017-08-29T19:06:49.726Z,35.23
2017-08-29T19:09:17.395Z,45.23
2017-08-29T19:11:44.961Z,33.93
2017-08-29T19:14:12.445Z,38.40
2017-08-29T19:16:39.949Z,44.07
2017-08-29T19:19:08.225Z,48.60
2017-08-29T19:21:35.695Z,45.17
2017-08-29T19:24:03.955Z,45.30
2017-08-29T19:26:31.479Z,33.87
2017-08-29T19:28:59.086Z,46.90
2017-08-29T19:31:26.597Z,36.53
2017-08-29T19:33:54.619Z,35.10
2017-08-29T19:36:22.947Z,31.00
2017-08-29T19:38:50.427Z,40.60
2017-08-29T19:41:18.880Z,34.47
2017-08-29T19:43:46.373Z,41.43
2017-08-29T19:46:13.857Z,39.67
2017-08-29T19:48:41.392Z,43.77
2017-08-29T19:51:08.947Z,45.53
2017-08-29T19:53:36.412Z,49.03
2017-08-29T19:56:03.966Z,51.00
2017-08-29T19:58:31.425Z,43.00
2017-08-29T20:01:00.204Z,47.07
2017-08-29T20:03:27.755Z,40.23
2017-08-29T20:05:55.288Z,46.17
2017-08-29T20:08:22.760Z,40.13
2017-08-29T20:10:50.547Z,41.47
2017-08-29T20:13:18.096Z,40.93
2017-08-29T20:15:45.564Z,61.33
2017-08-29T20:18:13.327Z,41.90
2017-08-29T20:20:40.792Z,34.23
2017-08-29T20:23:08.268Z,37.10
2017-08-29T20:25:36.799Z,46.40
2017-08-29T20:28:04.371Z,39.30
2017-08-29T20:30:31.936Z,37.17
2017-08-29T20:32:59.507Z,41.83
2017-08-29T20:35:27.053Z,43.93
2017-08-29T20:37:54.617Z,48.60
2017-08-29T20:40:22.219Z,39.50
2017-08-29T20:42:49.710Z,42.67
2017-08-29T20:45:17.285Z,38.43
2017-08-29T20:47:45.344Z,50.30
2017-08-29T20:50:12.836Z,41.97
2017-08-29T20:52:40.313Z,44.13
2017-08-29T20:55:07.811Z,48.03
2017-08-29T20:57:36.211Z,47.63
2017-08-29T21:00:03.683Z,47.67
2017-08-29T21:02:31.456Z,47.97
2017-08-29T21:04:59.051Z,51.20
2017-08-29T21:07:26.520Z,49.27
2017-08-29T21:09:54.027Z,67.90
2017-08-29T21:12:21.504Z,62.27
2017-08-29T21:14:48.992Z,55.90
2017-08-29T21:17:17.559Z,59.67
2017-08-29T21:19:45.036Z,60.77
2017-08-29T21:22:12.495Z,60.43
2017-08-29T21:24:39.980Z,55.43
2017-08-29T21:27:07.439Z,50.37
2017-08-29T21:29:35.692Z,49.67
2017-08-29T21:32:03.971Z,47.03
2017-08-29T21:34:31.544Z,43.83
2017-08-29T21:36:59.004Z,46.43
2017-08-29T21:39:26.508Z,38.07
2017-08-29T21:41:53.973Z,46.20
2017-08-29T21:44:21.455Z,43.33
2017-08-29T21:46:49.016Z,40.77
2017-08-29T21:49:17.282Z,41.53
2017-08-29T21:51:44.853Z,39.57
2017-08-29T21:54:12.407Z,41.60
2017-08-29T21:56:39.867Z,34.83
2017-08-29T21:59:07.328Z,39.57
2017-08-29T22:01:34.845Z,32.10
2017-08-29T22:04:02.300Z,36.87
2017-08-29T22:06:29.782Z,35.60
2017-08-29T22:08:58.041Z,32.83
2017-08-29T22:11:25.504Z,36.50
2017-08-29T22:13:52.980Z,31.23
2017-08-29T22:16:20.702Z,36.07
2017-08-29T22:18:48.183Z,39.93
2017-08-29T22:21:15.659Z,36.50
2017-08-29T22:23:43.217Z,33.33
2017-08-29T22:26:10.687Z,40.17
2017-08-29T22:28:38.151Z,34.20
2017-08-29T22:31:05.695Z,29.07
2017-08-29T22:33:33.167Z,36.23
2017-08-29T22:36:00.716Z,35.67
2017-08-29T22:38:28.267Z,37.70
2017-08-29T22:40:55.749Z,34.27
2017-08-29T22:43:23.210Z,34.40
2017-08-29T22:45:50.731Z,34.83
2017-08-29T22:48:18.294Z,30.07
2017-08-29T22:50:45.766Z,35.00
2017-08-29T22:53:14.036Z,28.70
2017-08-29T22:55:41.500Z,29.30
2017-08-29T22:58:09.068Z,29.27
2017-08-29T23:00:36.609Z,29.27
2017-08-29T23:03:04.164Z,27.53
2017-08-29T23:05:31.870Z,32.77
2017-08-29T23:07:59.340Z,28.37
2017-08-29T23:10:26.805Z,31.30
2017-08-29T23:12:54.271Z,29.67
2017-08-29T23:15:21.745Z,32.27
2017-08-29T23:17:49.259Z,33.30
2017-08-29T23:20:16.719Z,33.00
2017-08-29T23:22:44.200Z,32.67
2017-08-29T23:25:11.698Z,35.33
2017-08-29T23:27:39.949Z,31.53
2017-08-29T23:30:07.418Z,35.10
2017-08-29T23:32:34.883Z,31.00
2017-08-29T23:35:02.420Z,30.10
2017-08-29T23:37:29.975Z,33.53
2017-08-29T23:39:57.535Z,34.00
2017-08-29T23:42:25.004Z,34.70
2017-08-29T23:44:52.474Z,35.37
2017-08-29T23:47:20.028Z,39.13
2017-08-29T23:49:47.575Z,33.87
2017-08-29T23:52:15.053Z,28.70
2017-08-29T23:54:42.519Z,34.43
2017-08-29T23:57:09.979Z,36.87
2017-08-29T23:59:37.456Z,38.77
